• Join FlightAware (Why Join?)
  • Login
  • US Flag 
11:28PM EDT


 

Airport Tracker/Info


-or-


 

Live Flight TrackerFlight Track Log ✈ N534QS ✈ 17-May-2013 ✈ CYYZ - MYNN / NAS

Flight Track Log - Related Links

Times and Time Zones

All times are in EDT time to prevent confusion due to time zone crossing. See the N534QS flight status page for this flight to view local times or setup timezone preferences in your user account.

Time Position Orientation Groundspeed Altitude Reporting Facility
EDT Latitude Longitude Course Direction KTS MPH feet Rate Location/Type
09:29AM 43.6667 -79.5833 65° Northeast 60 69 600  Level Toronto Center
09:30AM 43.6833 -79.5333 65° Northeast 180 207 3,900 3,300 Climbing Toronto Center
09:31AM 43.7333 -79.4667 44° Northeast 230 265 7,300 3,780 Climbing Toronto Center
09:32AM 43.7000 -79.3833 119° Southeast 290 334 11,500 3,660 Climbing Toronto Center
09:33AM 43.6167 -79.3500 164° South 320 368 14,700 2,520 Climbing Toronto Center
09:34AM 43.5333 -79.4500 221° Southwest 370 426 16,600 2,460 Climbing Toronto Center
09:35AM 43.4333 -79.5000 200° South 400 460 19,700 3,120 Climbing Toronto Center
09:36AM 43.3167 -79.5667 203° Southwest 400 460 22,900 1,620 Climbing Toronto Center
09:37AM 43.2167 -79.6167 200° South 430 495 23,000 240 Climbing Toronto Center
09:38AM 43.1000 -79.6833 203° Southwest 450 518 23,400 1,320 Climbing Toronto Center
09:39AM 42.9667 -79.6833 180° South 460 529 25,700 2,280 Climbing Toronto Center
09:40AM 42.8333 -79.6333 165° South 500 575 28,000 2,040 Climbing Toronto Center
09:40AM 42.7622 -79.5822 152° Southeast 480 552 29,400 1,980 Climbing Cleveland Center
09:41AM 42.6300 -79.4769 150° Southeast 500 575 31,600 1,800 Climbing Cleveland Center
09:42AM 42.4997 -79.3694 149° Southeast 526 605 33,000 660 Climbing Cleveland Center
09:43AM 42.3506 -79.2514 150° Southeast 553 636 33,000 900 Level Cleveland Center
09:44AM 42.2200 -79.1478 150° Southeast 559 643 34,800 1,920 Climbing Cleveland Center
09:47AM 41.9333 -78.8667 144° Southeast 550 633 39,300 1,920 Climbing Toronto Center
09:47AM 41.8400 -78.8078 155° Southeast 549 632 40,700 960 Climbing Cleveland Center
09:48AM 41.7172 -78.6969 146° Southeast 549 632 41,000 120 Climbing Cleveland Center
09:49AM 41.5925 -78.5869 147° Southeast 539 620 41,000 1,020 Level Cleveland Center
09:51AM 41.4219 -78.4353 146° Southeast 513 590 43,700 1,500 Climbing New York Center
09:52AM 41.3078 -78.3311 146° Southeast 500 575 45,000 660 Climbing New York Center
09:53AM 41.1894 -78.2267 146° Southeast 500 575 45,000  Level New York Center
09:54AM 41.0647 -78.1194 147° Southeast 515 593 45,000  Level New York Center
09:55AM 40.9378 -78.0122 147° Southeast 530 610 45,000  Level New York Center
09:56AM 40.8125 -77.9167 150° Southeast 530 610 45,000  Level New York Center
09:57AM 40.6825 -77.8239 152° Southeast 530 610 45,000  Level New York Center
09:58AM 40.5567 -77.7317 151° Southeast 530 610 45,000  Level New York Center
09:59AM 40.4214 -77.6553 157° South 525 604 45,000  Level New York Center
10:00AM 40.2853 -77.6308 172° South 502 578 45,000  Level New York Center
10:02AM 39.9378 -77.6506 182° South 505 581 45,000  Level Washington Center
10:03AM 39.7981 -77.6628 184° South 505 581 45,000  Level Washington Center
10:04AM 39.6583 -77.6697 182° South 510 587 45,000  Level Washington Center
10:05AM 39.5164 -77.6792 183° South 510 587 45,000  Level Washington Center
10:06AM 39.3786 -77.6858 182° South 510 587 45,000  Level Washington Center
10:07AM 39.2411 -77.6953 183° South 510 587 45,000  Level Washington Center
10:08AM 39.1033 -77.7019 182° South 505 581 45,000  Level Washington Center
10:09AM 38.9614 -77.7086 182° South 505 581 45,000  Level Washington Center
10:10AM 38.8403 -77.7183 184° South 493 567 45,000  Level Washington Center
10:11AM 38.6964 -77.7250 182° South 502 578 45,000  Level Washington Center
10:12AM 38.5650 -77.7344 183° South 502 578 45,000  Level Washington Center
10:13AM 38.4292 -77.7411 182° South 495 570 45,000  Level Washington Center
10:14AM 38.2914 -77.7503 183° South 500 575 45,000  Level Washington Center
10:15AM 38.1536 -77.7569 182° South 500 575 45,000  Level Washington Center
10:16AM 38.0097 -77.7581 180° South 493 567 45,000  Level Washington Center
10:17AM 37.8867 -77.7678 184° South 488 562 45,000  Level Washington Center
10:18AM 37.7342 -77.7792 183° South 499 574 45,000  Level Washington Center
10:19AM 37.6108 -77.7861 183° South 499 574 45,000  Level Washington Center
10:20AM 37.4628 -77.7922 182° South 499 574 45,000  Level Washington Center
10:21AM 37.3394 -77.8044 185° South 499 574 45,000  Level Washington Center
10:22AM 37.1892 -77.8131 183° South 499 574 45,000  Level Washington Center
10:23AM 37.0681 -77.8147 181° South 493 567 45,000  Level Washington Center
10:24AM 36.9200 -77.8183 181° South 493 567 45,000  Level Washington Center
10:25AM 36.7842 -77.8247 182° South 493 567 45,000  Level Washington Center
10:26AM 36.6506 -77.8339 183° South 493 567 45,000  Level Washington Center
10:27AM 36.5147 -77.8456 184° South 493 567 45,000  Level Washington Center
10:28AM 36.3789 -77.8494 181° South 493 567 45,000  Level Washington Center
10:29AM 36.2411 -77.8556 182° South 493 567 45,000  Level Washington Center
10:30AM 36.1033 -77.8619 182° South 498 573 45,000  Level Washington Center
10:31AM 35.9656 -77.8683 182° South 498 573 45,000  Level Washington Center
10:32AM 35.8275 -77.8772 183° South 498 573 45,000  Level Washington Center
10:33AM 35.6897 -77.8808 181° South 498 573 45,000  Level Washington Center
10:34AM 35.5644 -77.8875 182° South 498 573 45,000  Level Washington Center
10:35AM 35.4244 -77.8961 183° South 498 573 45,000  Level Washington Center
10:36AM 35.2867 -77.9000 181° South 498 573 45,000  Level Washington Center
10:37AM 35.1508 -77.9114 184° South 493 567 45,000  Level Washington Center
10:38AM 35.0150 -77.9175 182° South 493 567 45,000  Level Washington Center
10:39AM 34.8772 -77.9236 182° South 498 573 45,000  Level Washington Center
10:40AM 34.7311 -77.9347 184° South 492 566 45,000  Level Washington Center
10:41AM 34.5953 -77.9433 183° South 492 566 45,000  Level Washington Center
10:42AM 34.4594 -77.9497 182° South 492 566 45,000  Level Washington Center
10:46AM 34.0278 -77.9564 181° South 499 574 45,000  Level Jacksonville Center
10:47AM 33.8900 -77.9517 178° South 504 580 45,000  Level Jacksonville Center
10:48AM 33.7558 -77.9417 176° South 504 580 45,000  Level Jacksonville Center
10:49AM 33.6158 -77.9347 178° South 509 586 45,000  Level Jacksonville Center
10:50AM 33.4800 -77.9250 177° South 498 573 45,000  Level Jacksonville Center
10:51AM 33.3439 -77.9175 177° South 498 573 45,000  Level Jacksonville Center
10:52AM 33.2039 -77.9081 177° South 504 580 45,000  Level Jacksonville Center
10:53AM 33.0617 -77.9011 178° South 504 580 45,000  Level Jacksonville Center
10:54AM 32.9214 -77.8917 177° South 509 586 45,000  Level Jacksonville Center
10:55AM 32.7833 -77.8844 177° South 509 586 45,000  Level Jacksonville Center
10:56AM 32.6453 -77.8772 177° South 504 580 45,000  Level Jacksonville Center
10:57AM 32.5050 -77.8653 176° South 504 580 45,000  Level Jacksonville Center
10:58AM 32.3664 -77.8458 173° South 499 574 45,000  Level Jacksonville Center
10:59AM 32.2292 -77.8536 183° South 499 574 45,000  Level Jacksonville Center
11:00AM 32.0886 -77.8367 174° South 499 574 45,000  Level Jacksonville Center
11:01AM 31.9508 -77.8344 179° South 499 574 45,000  Level Jacksonville Center
11:02AM 31.8106 -77.8250 177° South 499 574 45,000  Level Jacksonville Center
11:03AM 31.6742 -77.8106 175° South 499 574 45,000  Level Jacksonville Center
11:04AM 31.5361 -77.8036 178° South 499 574 45,000  Level Jacksonville Center
11:05AM 31.3961 -77.7942 177° South 504 580 45,000  Level Jacksonville Center
11:06AM 31.2561 -77.7919 179° South 504 580 45,000  Level Jacksonville Center
11:07AM 31.1158 -77.7850 178° South 504 580 45,000  Level Jacksonville Center
11:08AM 30.9761 -77.7853 180° South 499 574 45,000  Level Jacksonville Center
11:09AM 30.8397 -77.7686 174° South 499 574 45,000  Level Jacksonville Center
11:10AM 30.5736 -77.7614 179° South 491 565 45,000  Level Miami Center
11:11AM 30.4381 -77.7531 177° South 500 575 45,000  Level Miami Center
11:12AM 30.2858 -77.7542 180° South 492 566 45,000  Level Miami Center
11:13AM 30.1358 -77.7386 175° South 504 580 45,000  Level Miami Center
11:14AM 30.0003 -77.7350 179° South 513 590 45,000  Level Miami Center
11:15AM 29.8503 -77.7219 176° South 519 597 45,000  Level Miami Center
11:16AM 29.7128 -77.7136 177° South 516 594 45,000  Level Miami Center
11:17AM 29.5731 -77.7078 178° South 508 585 45,000  Level Miami Center
11:18AM 29.4333 -77.7019 178° South 514 592 45,000  Level Miami Center
11:19AM 29.2978 -77.6961 178° South 509 586 45,000  Level Miami Center
11:20AM 29.1581 -77.6881 177° South 504 580 45,000 -300 Level Miami Center
11:21AM 29.0078 -77.6772 176° South 514 592 44,500 -1,020 Descending Miami Center
11:22AM 28.8889 -77.6764 180° South 492 566 43,000 -1,500 Descending Miami Center
11:23AM 28.7428 -77.6658 176° South 492 566 41,500 -1,500 Descending Miami Center
11:24AM 28.6053 -77.6603 178° South 498 573 40,000 -1,680 Descending Miami Center
11:25AM 28.4694 -77.6522 177° South 498 573 38,200 -1,920 Descending Miami Center
11:26AM 28.3233 -77.6464 178° South 498 573 36,200 -2,040 Descending Miami Center
11:27AM 28.1858 -77.6408 178° South 504 580 34,200 -1,140 Descending Miami Center
11:28AM 28.0481 -77.6328 177° South 509 586 34,000 -120 Descending Miami Center
11:29AM 27.9122 -77.6225 176° South 499 574 34,000  Level Miami Center
11:30AM 27.7683 -77.6167 178° South 507 583 34,000  Level Miami Center
11:31AM 27.6283 -77.6089 177° South 507 583 34,000  Level Miami Center
11:32AM 27.4864 -77.5961 175° South 512 589 34,000  Level Miami Center
11:33AM 27.3444 -77.5978 181° South 512 589 34,000  Level Miami Center
11:34AM 27.2044 -77.5828 175° South 512 589 34,000  Level Miami Center
11:35AM 27.0625 -77.5750 177° South 512 589 34,000 -960 Level Miami Center
11:36AM 26.9206 -77.5625 176° South 512 589 32,100 -2,040 Descending Miami Center
11:37AM 26.7828 -77.5522 176° South 517 595 30,000 -1,920 Descending Miami Center
11:38AM 26.6614 -77.5492 179° South 507 583 28,300 -1,860 Descending Miami Center
11:39AM 26.5300 -77.5461 179° South 493 567 26,300 -2,040 Descending Miami Center
11:40AM 26.4025 -77.5383 177° South 469 540 24,300 -2,040 Descending Miami Center
11:41AM 26.2792 -77.5283 176° South 458 527 22,300 -1,860 Descending Miami Center
11:42AM 26.1622 -77.5208 177° South 439 505 20,600 -1,800 Descending Miami Center
11:43AM 26.0475 -77.5133 177° South 428 493 18,800 -1,800 Descending Miami Center
11:44AM 25.9347 -77.5058 177° South 415 478 17,100 -1,740 Descending Miami Center
11:45AM 25.8303 -77.4961 175° South 404 465 15,400 -1,620 Descending Miami Center
11:46AM 25.7361 -77.4908 177° South 370 426 13,900 -1,200 Descending Miami Center
11:47AM 25.6483 -77.4858 177° South 337 388 13,000 -480 Descending Miami Center
11:48AM 25.5628 -77.4808 177° South 322 371 13,000  Level Miami Center
11:49AM 25.4769 -77.4872 184° South 317 365 13,000 -600 Level Miami Center
11:50AM 25.3975 -77.5214 201° Southwest 303 349 11,800 -1,200 Descending Miami Center
11:52AM 25.2770 -77.4630 156° South  Level FlightAware Approximate
11:59AM 25.0333 -77.4500 318° Northwest  Level FlightAware Approximate
12:00PM 25.0390 -77.4662 318° Northwest  Level Estimated
12:01PM 25.0390 -77.4662 318° Northwest  Level Estimated
12:02PM 25.0390 -77.4662 318° Northwest  Level Estimated
12:03PM 25.0390 -77.4662 318° Northwest  Level Estimated
12:04PM 25.0390 -77.4662 318° Northwest  Level Estimated
12:05PM 25.0390 -77.4662 318° Northwest  Level Estimated
12:06PM 25.0390 -77.4662 318° Northwest  Level Estimated
12:07PM 25.0390 -77.4662 318° Northwest  Level Estimated
12:08PM 25.0390 -77.4662 318° Northwest  Level Estimated
12:09PM 25.0390 -77.4662 318° Northwest  Level Estimated
12:10PM 25.0390 -77.4662 318° Northwest  Level Estimated
12:11PM 25.0390 -77.4662 318° Northwest  Level Estimated